Salina Municipal Airport
KSLN : now visible

Airfield :











YOU CAN JOIN US ON...

 
LOGIN :

Register | Disclaimer

   EN    FR    IT 

 









Legend :    VFR   Marginal VFR   IFR   Intensive IFR   Very Intensive IFR
Visi :
Ceiling :
>= 8 km
>= 3000ft
5 to 8 km
1000 to 3000 ft
1500m to 5 km
500 to 1000 ft
800 to 1500m
200 to 500 ft
< 800m
< 200 ft
Symbols :   Thunderstorms  Fog  Heavy snow  Heavy precipitations  Wind > 20 kt






- Airport Elevation : 1288 ft
- IATA code : SLN


KSLN - Salina Municipal

CURRENT METAR :
  • 170253Z 13005KT 10SM CLR 06/03 A2988 RMK AO2 SLP126 T00610028 58006

EXPIRED METARs :
  • 170153Z 14005KT 10SM CLR 07/03 A2989 RMK AO2 SLP131 T00670028
  • 170053Z 15006KT 10SM CLR 08/03 A2990 RMK AO2 SLP132 T00780033

TAF KSLN
Valid from the 17 at 00:00 until the 18 at 00:00 UTC


162329Z 1700/1724 16005KT P6SM BKN200
FM170700 17005KT 3SM BR BKN035
FM171000 VRB04KT 1SM BR BKN008
FM171400 26004KT 4SM BR BKN015
FM171600 28005KT P6SM BKN025
FM171900 32011KT P6SM SCT110



MET'MAP, your aeronautical weather chart ! - Copyright ORBIFLY December 2007 - Disclaimer

ORBIFLY MET'MAP TEAM :

Programming & Development : Alexandra Zaïnal
Concept & original design : Baudouin d'Aumeries
Assistance for programming : Marc-Olivier Méhu
Technical & hardware support : Manuel Goepfert

Contact : metmap@orbifly.com




SOURCES & CREDITS :

   NOAA       Earth
Advisory